sensor_id;sensor_type;location;lat;lon;timestamp;P1;durP1;ratioP1;P2;durP2;ratioP2
42600;SDS011;28229;48.856;9.088;2024-02-28T00:00:39;19.00;;;14.07;;
42600;SDS011;28229;48.856;9.088;2024-02-28T00:03:05;22.03;;;15.57;;
42600;SDS011;28229;48.856;9.088;2024-02-28T00:05:31;20.57;;;14.37;;
42600;SDS011;28229;48.856;9.088;2024-02-28T00:07:58;19.07;;;14.30;;
42600;SDS011;28229;48.856;9.088;2024-02-28T00:10:24;19.40;;;14.03;;
42600;SDS011;28229;48.856;9.088;2024-02-28T00:12:50;22.30;;;14.50;;
42600;SDS011;28229;48.856;9.088;2024-02-28T00:15:16;20.40;;;15.17;;
42600;SDS011;28229;48.856;9.088;2024-02-28T00:17:43;22.23;;;15.67;;
42600;SDS011;28229;48.856;9.088;2024-02-28T00:20:09;21.13;;;14.90;;
42600;SDS011;28229;48.856;9.088;2024-02-28T00:22:37;20.87;;;15.70;;
42600;SDS011;28229;48.856;9.088;2024-02-28T00:25:03;20.33;;;14.77;;
42600;SDS011;28229;48.856;9.088;2024-02-28T00:27:32;19.30;;;14.80;;
42600;SDS011;28229;48.856;9.088;2024-02-28T00:29:59;22.43;;;16.47;;
42600;SDS011;28229;48.856;9.088;2024-02-28T00:32:25;21.83;;;15.23;;
42600;SDS011;28229;48.856;9.088;2024-02-28T00:34:51;20.13;;;14.60;;
42600;SDS011;28229;48.856;9.088;2024-02-28T00:37:17;22.43;;;15.17;;
42600;SDS011;28229;48.856;9.088;2024-02-28T00:39:44;20.83;;;15.00;;
42600;SDS011;28229;48.856;9.088;2024-02-28T00:42:11;22.20;;;15.57;;
42600;SDS011;28229;48.856;9.088;2024-02-28T00:44:37;20.43;;;14.83;;
42600;SDS011;28229;48.856;9.088;2024-02-28T00:47:03;20.53;;;14.83;;
42600;SDS011;28229;48.856;9.088;2024-02-28T00:49:29;22.77;;;15.67;;
42600;SDS011;28229;48.856;9.088;2024-02-28T00:51:55;20.73;;;14.27;;
42600;SDS011;28229;48.856;9.088;2024-02-28T00:54:22;23.03;;;15.27;;
42600;SDS011;28229;48.856;9.088;2024-02-28T00:56:49;18.80;;;14.13;;
42600;SDS011;28229;48.856;9.088;2024-02-28T00:59:15;19.17;;;13.50;;
42600;SDS011;28229;48.856;9.088;2024-02-28T01:01:41;19.13;;;13.77;;
42600;SDS011;28229;48.856;9.088;2024-02-28T01:04:08;18.80;;;13.60;;
42600;SDS011;28229;48.856;9.088;2024-02-28T01:06:34;18.43;;;13.10;;
42600;SDS011;28229;48.856;9.088;2024-02-28T01:09:00;21.20;;;13.80;;
42600;SDS011;28229;48.856;9.088;2024-02-28T01:11:26;17.00;;;13.03;;
42600;SDS011;28229;48.856;9.088;2024-02-28T01:13:52;21.10;;;14.23;;
42600;SDS011;28229;48.856;9.088;2024-02-28T01:16:18;17.73;;;13.57;;
42600;SDS011;28229;48.856;9.088;2024-02-28T01:18:45;19.10;;;13.37;;
42600;SDS011;28229;48.856;9.088;2024-02-28T01:21:11;19.17;;;13.43;;
42600;SDS011;28229;48.856;9.088;2024-02-28T01:23:37;19.10;;;13.57;;
42600;SDS011;28229;48.856;9.088;2024-02-28T01:26:03;19.73;;;14.20;;
42600;SDS011;28229;48.856;9.088;2024-02-28T01:28:31;20.03;;;14.10;;
42600;SDS011;28229;48.856;9.088;2024-02-28T01:30:57;20.00;;;14.17;;
42600;SDS011;28229;48.856;9.088;2024-02-28T01:33:23;20.13;;;13.97;;
42600;SDS011;28229;48.856;9.088;2024-02-28T01:35:50;20.00;;;14.03;;
42600;SDS011;28229;48.856;9.088;2024-02-28T01:38:16;19.17;;;14.27;;
42600;SDS011;28229;48.856;9.088;2024-02-28T01:40:45;20.73;;;14.73;;
42600;SDS011;28229;48.856;9.088;2024-02-28T01:43:12;20.10;;;13.80;;
42600;SDS011;28229;48.856;9.088;2024-02-28T01:45:38;20.03;;;13.53;;
42600;SDS011;28229;48.856;9.088;2024-02-28T01:48:09;22.23;;;14.90;;
42600;SDS011;28229;48.856;9.088;2024-02-28T01:50:38;20.50;;;14.30;;
42600;SDS011;28229;48.856;9.088;2024-02-28T01:53:05;21.40;;;14.23;;
42600;SDS011;28229;48.856;9.088;2024-02-28T01:55:37;19.47;;;13.77;;
42600;SDS011;28229;48.856;9.088;2024-02-28T01:58:04;18.83;;;13.70;;
42600;SDS011;28229;48.856;9.088;2024-02-28T02:00:34;20.10;;;14.23;;
42600;SDS011;28229;48.856;9.088;2024-02-28T02:03:00;20.67;;;14.27;;
42600;SDS011;28229;48.856;9.088;2024-02-28T02:05:27;22.03;;;14.53;;
42600;SDS011;28229;48.856;9.088;2024-02-28T02:07:54;19.77;;;14.57;;
42600;SDS011;28229;48.856;9.088;2024-02-28T02:10:23;19.67;;;14.40;;
42600;SDS011;28229;48.856;9.088;2024-02-28T02:12:49;20.60;;;14.23;;
42600;SDS011;28229;48.856;9.088;2024-02-28T02:15:15;21.97;;;14.00;;
42600;SDS011;28229;48.856;9.088;2024-02-28T02:17:41;21.17;;;15.17;;
42600;SDS011;28229;48.856;9.088;2024-02-28T02:20:09;17.77;;;13.50;;
42600;SDS011;28229;48.856;9.088;2024-02-28T02:22:37;19.07;;;13.13;;
42600;SDS011;28229;48.856;9.088;2024-02-28T02:25:06;19.50;;;13.97;;
42600;SDS011;28229;48.856;9.088;2024-02-28T02:27:33;19.33;;;14.13;;
42600;SDS011;28229;48.856;9.088;2024-02-28T02:29:59;18.50;;;13.80;;
42600;SDS011;28229;48.856;9.088;2024-02-28T02:32:25;21.57;;;14.33;;
42600;SDS011;28229;48.856;9.088;2024-02-28T02:34:52;20.27;;;13.50;;
42600;SDS011;28229;48.856;9.088;2024-02-28T02:37:18;18.77;;;13.93;;
42600;SDS011;28229;48.856;9.088;2024-02-28T02:39:44;18.43;;;13.33;;
42600;SDS011;28229;48.856;9.088;2024-02-28T02:42:10;21.40;;;14.37;;
42600;SDS011;28229;48.856;9.088;2024-02-28T02:44:39;19.30;;;13.90;;
42600;SDS011;28229;48.856;9.088;2024-02-28T02:47:05;21.00;;;14.20;;
42600;SDS011;28229;48.856;9.088;2024-02-28T02:49:31;21.90;;;14.63;;
42600;SDS011;28229;48.856;9.088;2024-02-28T02:51:57;19.77;;;14.43;;
42600;SDS011;28229;48.856;9.088;2024-02-28T02:54:23;19.97;;;13.07;;
42600;SDS011;28229;48.856;9.088;2024-02-28T02:56:49;20.93;;;14.37;;
42600;SDS011;28229;48.856;9.088;2024-02-28T02:59:16;20.70;;;13.67;;
42600;SDS011;28229;48.856;9.088;2024-02-28T03:01:42;20.20;;;14.87;;
42600;SDS011;28229;48.856;9.088;2024-02-28T03:04:08;19.53;;;14.00;;
42600;SDS011;28229;48.856;9.088;2024-02-28T03:06:34;19.97;;;14.70;;
42600;SDS011;28229;48.856;9.088;2024-02-28T03:09:00;23.33;;;14.87;;
42600;SDS011;28229;48.856;9.088;2024-02-28T03:11:26;20.03;;;14.50;;
42600;SDS011;28229;48.856;9.088;2024-02-28T03:13:52;21.07;;;14.17;;
42600;SDS011;28229;48.856;9.088;2024-02-28T03:16:19;21.63;;;15.20;;
42600;SDS011;28229;48.856;9.088;2024-02-28T03:18:45;19.83;;;14.20;;
42600;SDS011;28229;48.856;9.088;2024-02-28T03:21:12;23.23;;;14.60;;
42600;SDS011;28229;48.856;9.088;2024-02-28T03:23:38;21.40;;;14.23;;
42600;SDS011;28229;48.856;9.088;2024-02-28T03:26:04;19.77;;;13.97;;
42600;SDS011;28229;48.856;9.088;2024-02-28T03:28:30;20.07;;;13.70;;
42600;SDS011;28229;48.856;9.088;2024-02-28T03:30:56;22.10;;;14.57;;
42600;SDS011;28229;48.856;9.088;2024-02-28T03:33:23;22.03;;;14.20;;
42600;SDS011;28229;48.856;9.088;2024-02-28T03:35:50;19.73;;;14.43;;
42600;SDS011;28229;48.856;9.088;2024-02-28T03:38:16;20.27;;;14.50;;
42600;SDS011;28229;48.856;9.088;2024-02-28T03:40:43;21.40;;;15.20;;
42600;SDS011;28229;48.856;9.088;2024-02-28T03:43:09;22.30;;;15.83;;
42600;SDS011;28229;48.856;9.088;2024-02-28T03:45:39;21.07;;;14.50;;
42600;SDS011;28229;48.856;9.088;2024-02-28T03:48:05;21.57;;;15.30;;
42600;SDS011;28229;48.856;9.088;2024-02-28T03:50:31;20.10;;;15.00;;
42600;SDS011;28229;48.856;9.088;2024-02-28T03:52:57;23.50;;;15.93;;
42600;SDS011;28229;48.856;9.088;2024-02-28T03:55:24;20.13;;;15.23;;
42600;SDS011;28229;48.856;9.088;2024-02-28T03:57:50;20.07;;;15.30;;
42600;SDS011;28229;48.856;9.088;2024-02-28T04:00:17;20.63;;;15.47;;
42600;SDS011;28229;48.856;9.088;2024-02-28T04:02:44;23.97;;;15.23;;
42600;SDS011;28229;48.856;9.088;2024-02-28T04:05:10;20.63;;;15.50;;
42600;SDS011;28229;48.856;9.088;2024-02-28T04:07:39;22.27;;;15.43;;
42600;SDS011;28229;48.856;9.088;2024-02-28T04:10:05;21.83;;;15.50;;
42600;SDS011;28229;48.856;9.088;2024-02-28T04:12:31;23.27;;;16.23;;
42600;SDS011;28229;48.856;9.088;2024-02-28T04:14:58;22.37;;;16.03;;
42600;SDS011;28229;48.856;9.088;2024-02-28T04:17:27;22.10;;;15.23;;
42600;SDS011;28229;48.856;9.088;2024-02-28T04:19:53;22.07;;;16.03;;
42600;SDS011;28229;48.856;9.088;2024-02-28T04:22:19;22.00;;;15.87;;
42600;SDS011;28229;48.856;9.088;2024-02-28T04:24:45;22.23;;;15.97;;
42600;SDS011;28229;48.856;9.088;2024-02-28T04:27:12;23.00;;;16.30;;
42600;SDS011;28229;48.856;9.088;2024-02-28T04:29:38;22.93;;;16.50;;
42600;SDS011;28229;48.856;9.088;2024-02-28T04:32:04;22.00;;;16.80;;
42600;SDS011;28229;48.856;9.088;2024-02-28T04:34:30;24.80;;;16.83;;
42600;SDS011;28229;48.856;9.088;2024-02-28T04:36:56;23.40;;;16.77;;
42600;SDS011;28229;48.856;9.088;2024-02-28T04:39:22;21.63;;;16.43;;
42600;SDS011;28229;48.856;9.088;2024-02-28T04:41:48;23.43;;;16.60;;
42600;SDS011;28229;48.856;9.088;2024-02-28T04:44:14;22.60;;;16.27;;
42600;SDS011;28229;48.856;9.088;2024-02-28T04:46:41;23.47;;;17.10;;
42600;SDS011;28229;48.856;9.088;2024-02-28T04:49:07;26.27;;;16.70;;
42600;SDS011;28229;48.856;9.088;2024-02-28T04:51:35;26.50;;;16.67;;
42600;SDS011;28229;48.856;9.088;2024-02-28T04:54:01;22.30;;;16.17;;
42600;SDS011;28229;48.856;9.088;2024-02-28T04:56:27;26.57;;;17.67;;
42600;SDS011;28229;48.856;9.088;2024-02-28T04:58:53;23.77;;;17.67;;
42600;SDS011;28229;48.856;9.088;2024-02-28T05:01:19;22.57;;;16.67;;
42600;SDS011;28229;48.856;9.088;2024-02-28T05:03:45;24.73;;;17.33;;
42600;SDS011;28229;48.856;9.088;2024-02-28T05:06:11;22.87;;;16.77;;
42600;SDS011;28229;48.856;9.088;2024-02-28T05:08:38;22.20;;;16.77;;
42600;SDS011;28229;48.856;9.088;2024-02-28T05:11:04;24.43;;;17.07;;
42600;SDS011;28229;48.856;9.088;2024-02-28T05:13:30;23.63;;;17.30;;
42600;SDS011;28229;48.856;9.088;2024-02-28T05:15:56;24.13;;;17.53;;
42600;SDS011;28229;48.856;9.088;2024-02-28T05:18:22;25.93;;;17.43;;
42600;SDS011;28229;48.856;9.088;2024-02-28T05:20:48;23.90;;;16.77;;
42600;SDS011;28229;48.856;9.088;2024-02-28T05:23:15;20.73;;;15.93;;
42600;SDS011;28229;48.856;9.088;2024-02-28T05:25:41;26.47;;;18.10;;
42600;SDS011;28229;48.856;9.088;2024-02-28T05:28:07;24.50;;;17.40;;
42600;SDS011;28229;48.856;9.088;2024-02-28T05:30:35;26.07;;;18.30;;
42600;SDS011;28229;48.856;9.088;2024-02-28T05:33:01;24.50;;;18.47;;
42600;SDS011;28229;48.856;9.088;2024-02-28T05:35:28;26.07;;;17.97;;
42600;SDS011;28229;48.856;9.088;2024-02-28T05:37:54;24.60;;;17.97;;
42600;SDS011;28229;48.856;9.088;2024-02-28T05:40:22;24.73;;;17.67;;
42600;SDS011;28229;48.856;9.088;2024-02-28T05:42:51;25.43;;;17.90;;
42600;SDS011;28229;48.856;9.088;2024-02-28T05:45:17;24.67;;;17.63;;
42600;SDS011;28229;48.856;9.088;2024-02-28T05:47:43;25.80;;;17.60;;
42600;SDS011;28229;48.856;9.088;2024-02-28T05:50:09;24.57;;;18.33;;
42600;SDS011;28229;48.856;9.088;2024-02-28T05:52:36;27.47;;;19.77;;
42600;SDS011;28229;48.856;9.088;2024-02-28T05:55:02;26.87;;;18.40;;
42600;SDS011;28229;48.856;9.088;2024-02-28T05:57:28;25.67;;;18.47;;
42600;SDS011;28229;48.856;9.088;2024-02-28T05:59:55;27.10;;;19.20;;
42600;SDS011;28229;48.856;9.088;2024-02-28T06:02:21;29.97;;;19.83;;
42600;SDS011;28229;48.856;9.088;2024-02-28T06:04:47;26.97;;;19.83;;
42600;SDS011;28229;48.856;9.088;2024-02-28T06:07:13;28.87;;;19.70;;
42600;SDS011;28229;48.856;9.088;2024-02-28T06:09:39;27.33;;;19.27;;
42600;SDS011;28229;48.856;9.088;2024-02-28T06:12:06;27.73;;;19.17;;
42600;SDS011;28229;48.856;9.088;2024-02-28T06:14:32;28.23;;;20.03;;
42600;SDS011;28229;48.856;9.088;2024-02-28T06:16:58;27.13;;;19.00;;
42600;SDS011;28229;48.856;9.088;2024-02-28T06:19:24;26.97;;;19.33;;
42600;SDS011;28229;48.856;9.088;2024-02-28T06:21:50;30.07;;;20.40;;
42600;SDS011;28229;48.856;9.088;2024-02-28T06:24:17;27.87;;;20.13;;
42600;SDS011;28229;48.856;9.088;2024-02-28T06:26:43;28.83;;;19.10;;
42600;SDS011;28229;48.856;9.088;2024-02-28T06:29:09;26.47;;;18.77;;
42600;SDS011;28229;48.856;9.088;2024-02-28T06:31:35;27.13;;;19.87;;
42600;SDS011;28229;48.856;9.088;2024-02-28T06:34:01;25.80;;;18.67;;
42600;SDS011;28229;48.856;9.088;2024-02-28T06:36:29;29.90;;;20.33;;
42600;SDS011;28229;48.856;9.088;2024-02-28T06:38:55;27.30;;;19.50;;
42600;SDS011;28229;48.856;9.088;2024-02-28T06:41:21;28.67;;;20.10;;
42600;SDS011;28229;48.856;9.088;2024-02-28T06:43:48;31.60;;;20.27;;
42600;SDS011;28229;48.856;9.088;2024-02-28T06:46:14;32.60;;;21.83;;
42600;SDS011;28229;48.856;9.088;2024-02-28T06:48:40;31.10;;;21.20;;
42600;SDS011;28229;48.856;9.088;2024-02-28T06:51:08;27.70;;;19.77;;
42600;SDS011;28229;48.856;9.088;2024-02-28T06:53:34;28.13;;;19.83;;
42600;SDS011;28229;48.856;9.088;2024-02-28T06:56:03;24.67;;;17.77;;
42600;SDS011;28229;48.856;9.088;2024-02-28T06:58:29;27.00;;;19.50;;
42600;SDS011;28229;48.856;9.088;2024-02-28T07:00:55;27.03;;;19.23;;
42600;SDS011;28229;48.856;9.088;2024-02-28T07:03:22;27.03;;;19.50;;
42600;SDS011;28229;48.856;9.088;2024-02-28T07:05:48;26.23;;;19.17;;
42600;SDS011;28229;48.856;9.088;2024-02-28T07:08:14;25.00;;;17.73;;
42600;SDS011;28229;48.856;9.088;2024-02-28T07:10:40;28.20;;;18.60;;
42600;SDS011;28229;48.856;9.088;2024-02-28T07:13:09;28.40;;;19.97;;
42600;SDS011;28229;48.856;9.088;2024-02-28T07:15:36;25.77;;;18.80;;
42600;SDS011;28229;48.856;9.088;2024-02-28T07:18:02;28.43;;;18.40;;
42600;SDS011;28229;48.856;9.088;2024-02-28T07:20:28;25.43;;;18.10;;
42600;SDS011;28229;48.856;9.088;2024-02-28T07:22:55;24.20;;;18.00;;
42600;SDS011;28229;48.856;9.088;2024-02-28T07:25:21;24.00;;;17.97;;
42600;SDS011;28229;48.856;9.088;2024-02-28T07:27:48;26.50;;;18.17;;
42600;SDS011;28229;48.856;9.088;2024-02-28T07:30:14;24.70;;;17.93;;
42600;SDS011;28229;48.856;9.088;2024-02-28T07:32:40;26.93;;;18.00;;
42600;SDS011;28229;48.856;9.088;2024-02-28T07:35:06;25.27;;;17.67;;
42600;SDS011;28229;48.856;9.088;2024-02-28T07:37:35;24.57;;;17.90;;
42600;SDS011;28229;48.856;9.088;2024-02-28T07:40:02;26.40;;;17.97;;
42600;SDS011;28229;48.856;9.088;2024-02-28T07:42:29;24.00;;;18.63;;
42600;SDS011;28229;48.856;9.088;2024-02-28T07:44:55;25.10;;;17.90;;
42600;SDS011;28229;48.856;9.088;2024-02-28T07:47:23;25.73;;;18.63;;
42600;SDS011;28229;48.856;9.088;2024-02-28T07:49:50;26.00;;;18.30;;
42600;SDS011;28229;48.856;9.088;2024-02-28T07:52:16;25.57;;;17.67;;
42600;SDS011;28229;48.856;9.088;2024-02-28T07:54:43;26.27;;;18.43;;
42600;SDS011;28229;48.856;9.088;2024-02-28T07:57:09;25.83;;;18.50;;
42600;SDS011;28229;48.856;9.088;2024-02-28T07:59:39;26.30;;;17.83;;
42600;SDS011;28229;48.856;9.088;2024-02-28T08:02:07;26.47;;;18.03;;
42600;SDS011;28229;48.856;9.088;2024-02-28T08:04:33;23.57;;;15.97;;
42600;SDS011;28229;48.856;9.088;2024-02-28T08:07:00;27.47;;;17.17;;
42600;SDS011;28229;48.856;9.088;2024-02-28T08:09:26;23.23;;;17.03;;
42600;SDS011;28229;48.856;9.088;2024-02-28T08:11:52;24.00;;;16.50;;
42600;SDS011;28229;48.856;9.088;2024-02-28T08:14:18;23.40;;;17.03;;
42600;SDS011;28229;48.856;9.088;2024-02-28T08:16:44;24.37;;;17.00;;
42600;SDS011;28229;48.856;9.088;2024-02-28T08:19:11;21.67;;;15.93;;
42600;SDS011;28229;48.856;9.088;2024-02-28T08:21:37;25.93;;;17.03;;
42600;SDS011;28229;48.856;9.088;2024-02-28T08:24:03;22.90;;;16.33;;
42600;SDS011;28229;48.856;9.088;2024-02-28T08:26:31;25.57;;;16.67;;
42600;SDS011;28229;48.856;9.088;2024-02-28T08:28:57;25.23;;;16.60;;
42600;SDS011;28229;48.856;9.088;2024-02-28T08:31:23;26.50;;;17.47;;
42600;SDS011;28229;48.856;9.088;2024-02-28T08:33:49;26.20;;;16.63;;
42600;SDS011;28229;48.856;9.088;2024-02-28T08:36:15;29.37;;;17.77;;
42600;SDS011;28229;48.856;9.088;2024-02-28T08:38:42;26.37;;;17.03;;
42600;SDS011;28229;48.856;9.088;2024-02-28T08:41:08;22.60;;;16.70;;
42600;SDS011;28229;48.856;9.088;2024-02-28T08:43:37;23.90;;;17.53;;
42600;SDS011;28229;48.856;9.088;2024-02-28T08:46:04;25.37;;;16.73;;
42600;SDS011;28229;48.856;9.088;2024-02-28T08:48:34;27.10;;;17.50;;
42600;SDS011;28229;48.856;9.088;2024-02-28T08:51:00;22.50;;;16.77;;
42600;SDS011;28229;48.856;9.088;2024-02-28T08:53:26;28.57;;;17.73;;
42600;SDS011;28229;48.856;9.088;2024-02-28T08:55:52;23.77;;;17.20;;
42600;SDS011;28229;48.856;9.088;2024-02-28T08:58:18;27.00;;;18.53;;
42600;SDS011;28229;48.856;9.088;2024-02-28T09:00:44;24.50;;;17.43;;
42600;SDS011;28229;48.856;9.088;2024-02-28T09:03:10;25.83;;;18.23;;
42600;SDS011;28229;48.856;9.088;2024-02-28T09:05:37;26.17;;;18.63;;
42600;SDS011;28229;48.856;9.088;2024-02-28T09:08:03;24.77;;;17.50;;
42600;SDS011;28229;48.856;9.088;2024-02-28T09:10:29;28.83;;;17.90;;
42600;SDS011;28229;48.856;9.088;2024-02-28T09:12:57;27.20;;;18.37;;
42600;SDS011;28229;48.856;9.088;2024-02-28T09:15:23;25.03;;;17.97;;
42600;SDS011;28229;48.856;9.088;2024-02-28T09:17:49;25.63;;;17.83;;
42600;SDS011;28229;48.856;9.088;2024-02-28T09:20:15;26.13;;;18.00;;
42600;SDS011;28229;48.856;9.088;2024-02-28T09:22:41;23.67;;;16.87;;
42600;SDS011;28229;48.856;9.088;2024-02-28T09:25:08;24.13;;;17.80;;
42600;SDS011;28229;48.856;9.088;2024-02-28T09:27:35;25.10;;;17.73;;
42600;SDS011;28229;48.856;9.088;2024-02-28T09:30:02;23.10;;;17.33;;
42600;SDS011;28229;48.856;9.088;2024-02-28T09:32:29;23.43;;;16.93;;
42600;SDS011;28229;48.856;9.088;2024-02-28T09:34:55;22.73;;;17.10;;
42600;SDS011;28229;48.856;9.088;2024-02-28T09:37:21;25.00;;;17.37;;
42600;SDS011;28229;48.856;9.088;2024-02-28T09:39:48;24.13;;;17.70;;
42600;SDS011;28229;48.856;9.088;2024-02-28T09:42:14;27.13;;;18.47;;
42600;SDS011;28229;48.856;9.088;2024-02-28T09:44:41;25.07;;;17.57;;
42600;SDS011;28229;48.856;9.088;2024-02-28T09:47:08;26.23;;;18.33;;
42600;SDS011;28229;48.856;9.088;2024-02-28T09:49:35;25.70;;;18.00;;
42600;SDS011;28229;48.856;9.088;2024-02-28T09:52:03;25.00;;;17.77;;
42600;SDS011;28229;48.856;9.088;2024-02-28T09:54:30;24.93;;;17.80;;
42600;SDS011;28229;48.856;9.088;2024-02-28T09:56:56;26.47;;;18.77;;
42600;SDS011;28229;48.856;9.088;2024-02-28T09:59:23;27.47;;;17.83;;
42600;SDS011;28229;48.856;9.088;2024-02-28T10:01:53;23.77;;;16.43;;
42600;SDS011;28229;48.856;9.088;2024-02-28T10:04:23;23.77;;;17.37;;
42600;SDS011;28229;48.856;9.088;2024-02-28T10:06:51;28.33;;;18.57;;
42600;SDS011;28229;48.856;9.088;2024-02-28T10:09:17;29.37;;;18.60;;
42600;SDS011;28229;48.856;9.088;2024-02-28T10:11:44;29.27;;;21.40;;
42600;SDS011;28229;48.856;9.088;2024-02-28T10:14:12;27.67;;;19.50;;
42600;SDS011;28229;48.856;9.088;2024-02-28T10:16:43;27.03;;;17.97;;
42600;SDS011;28229;48.856;9.088;2024-02-28T10:19:09;22.00;;;16.13;;
42600;SDS011;28229;48.856;9.088;2024-02-28T10:21:35;22.57;;;16.37;;
42600;SDS011;28229;48.856;9.088;2024-02-28T10:24:01;29.17;;;18.77;;
42600;SDS011;28229;48.856;9.088;2024-02-28T10:26:27;22.70;;;15.77;;
42600;SDS011;28229;48.856;9.088;2024-02-28T10:28:55;24.23;;;15.87;;
42600;SDS011;28229;48.856;9.088;2024-02-28T10:31:21;21.13;;;15.57;;
42600;SDS011;28229;48.856;9.088;2024-02-28T10:33:48;21.57;;;16.00;;
42600;SDS011;28229;48.856;9.088;2024-02-28T10:36:14;21.20;;;15.67;;
42600;SDS011;28229;48.856;9.088;2024-02-28T10:38:40;21.63;;;15.60;;
42600;SDS011;28229;48.856;9.088;2024-02-28T10:41:07;19.33;;;14.93;;
42600;SDS011;28229;48.856;9.088;2024-02-28T10:43:33;21.40;;;15.00;;
42600;SDS011;28229;48.856;9.088;2024-02-28T10:46:00;21.10;;;14.90;;
42600;SDS011;28229;48.856;9.088;2024-02-28T10:48:27;19.97;;;14.90;;
42600;SDS011;28229;48.856;9.088;2024-02-28T10:50:54;18.27;;;13.30;;
42600;SDS011;28229;48.856;9.088;2024-02-28T10:53:22;18.93;;;14.40;;
42600;SDS011;28229;48.856;9.088;2024-02-28T10:55:52;15.33;;;12.13;;
42600;SDS011;28229;48.856;9.088;2024-02-28T10:58:26;16.37;;;12.53;;
42600;SDS011;28229;48.856;9.088;2024-02-28T11:01:00;17.00;;;13.33;;
42600;SDS011;28229;48.856;9.088;2024-02-28T11:03:26;19.33;;;13.10;;
42600;SDS011;28229;48.856;9.088;2024-02-28T11:05:52;28.57;;;17.43;;
42600;SDS011;28229;48.856;9.088;2024-02-28T11:08:22;21.13;;;14.70;;
42600;SDS011;28229;48.856;9.088;2024-02-28T11:11:02;19.07;;;13.30;;
42600;SDS011;28229;48.856;9.088;2024-02-28T11:13:31;20.00;;;13.60;;
42600;SDS011;28229;48.856;9.088;2024-02-28T11:16:07;18.50;;;13.67;;
42600;SDS011;28229;48.856;9.088;2024-02-28T11:18:34;16.30;;;12.77;;
42600;SDS011;28229;48.856;9.088;2024-02-28T11:21:00;21.83;;;14.03;;
42600;SDS011;28229;48.856;9.088;2024-02-28T11:23:34;18.23;;;13.93;;
42600;SDS011;28229;48.856;9.088;2024-02-28T11:26:03;19.73;;;14.70;;
42600;SDS011;28229;48.856;9.088;2024-02-28T11:28:29;19.43;;;13.57;;
42600;SDS011;28229;48.856;9.088;2024-02-28T11:30:55;19.87;;;14.37;;
42600;SDS011;28229;48.856;9.088;2024-02-28T11:33:21;21.37;;;13.53;;
42600;SDS011;28229;48.856;9.088;2024-02-28T11:35:55;18.00;;;13.47;;
42600;SDS011;28229;48.856;9.088;2024-02-28T11:38:24;21.93;;;14.20;;
42600;SDS011;28229;48.856;9.088;2024-02-28T11:40:53;21.47;;;13.97;;
42600;SDS011;28229;48.856;9.088;2024-02-28T11:43:21;20.83;;;14.43;;
42600;SDS011;28229;48.856;9.088;2024-02-28T11:45:47;20.20;;;14.63;;
42600;SDS011;28229;48.856;9.088;2024-02-28T11:48:14;20.70;;;15.47;;
42600;SDS011;28229;48.856;9.088;2024-02-28T11:50:40;19.53;;;14.80;;
42600;SDS011;28229;48.856;9.088;2024-02-28T11:53:07;20.33;;;14.27;;
42600;SDS011;28229;48.856;9.088;2024-02-28T11:55:33;19.60;;;14.90;;
42600;SDS011;28229;48.856;9.088;2024-02-28T11:57:59;19.23;;;14.03;;
42600;SDS011;28229;48.856;9.088;2024-02-28T12:00:26;21.63;;;14.63;;
42600;SDS011;28229;48.856;9.088;2024-02-28T12:02:52;19.13;;;13.27;;
42600;SDS011;28229;48.856;9.088;2024-02-28T12:05:19;20.57;;;15.43;;
42600;SDS011;28229;48.856;9.088;2024-02-28T12:07:46;20.10;;;14.63;;
42600;SDS011;28229;48.856;9.088;2024-02-28T12:10:13;19.43;;;14.13;;
42600;SDS011;28229;48.856;9.088;2024-02-28T12:12:40;18.30;;;13.17;;
42600;SDS011;28229;48.856;9.088;2024-02-28T12:15:06;17.60;;;13.10;;
42600;SDS011;28229;48.856;9.088;2024-02-28T12:17:33;21.73;;;14.33;;
42600;SDS011;28229;48.856;9.088;2024-02-28T12:20:02;20.27;;;14.27;;
42600;SDS011;28229;48.856;9.088;2024-02-28T12:22:28;18.87;;;13.53;;
42600;SDS011;28229;48.856;9.088;2024-02-28T12:24:54;18.23;;;13.40;;
42600;SDS011;28229;48.856;9.088;2024-02-28T12:27:30;18.73;;;13.30;;
42600;SDS011;28229;48.856;9.088;2024-02-28T12:29:57;17.90;;;12.33;;
42600;SDS011;28229;48.856;9.088;2024-02-28T12:32:23;16.07;;;11.73;;
42600;SDS011;28229;48.856;9.088;2024-02-28T12:34:49;18.57;;;12.40;;
42600;SDS011;28229;48.856;9.088;2024-02-28T12:37:15;18.63;;;12.87;;
42600;SDS011;28229;48.856;9.088;2024-02-28T12:39:41;17.10;;;12.30;;
42600;SDS011;28229;48.856;9.088;2024-02-28T12:42:07;17.33;;;12.40;;
42600;SDS011;28229;48.856;9.088;2024-02-28T12:44:34;18.63;;;12.37;;
42600;SDS011;28229;48.856;9.088;2024-02-28T12:47:00;16.87;;;12.53;;
42600;SDS011;28229;48.856;9.088;2024-02-28T12:49:26;18.40;;;12.67;;
42600;SDS011;28229;48.856;9.088;2024-02-28T12:51:53;19.40;;;13.07;;
42600;SDS011;28229;48.856;9.088;2024-02-28T12:54:19;20.77;;;13.57;;
42600;SDS011;28229;48.856;9.088;2024-02-28T12:56:46;17.33;;;12.47;;
42600;SDS011;28229;48.856;9.088;2024-02-28T12:59:12;19.13;;;12.80;;
42600;SDS011;28229;48.856;9.088;2024-02-28T13:01:39;19.07;;;13.23;;
42600;SDS011;28229;48.856;9.088;2024-02-28T13:04:06;19.23;;;13.67;;
42600;SDS011;28229;48.856;9.088;2024-02-28T13:06:32;21.13;;;13.40;;
42600;SDS011;28229;48.856;9.088;2024-02-28T13:08:58;18.43;;;13.40;;
42600;SDS011;28229;48.856;9.088;2024-02-28T13:11:24;19.87;;;14.13;;
42600;SDS011;28229;48.856;9.088;2024-02-28T13:13:51;22.23;;;13.80;;
42600;SDS011;28229;48.856;9.088;2024-02-28T13:16:18;19.87;;;13.57;;
42600;SDS011;28229;48.856;9.088;2024-02-28T13:18:45;20.07;;;13.33;;
42600;SDS011;28229;48.856;9.088;2024-02-28T13:21:12;21.10;;;15.60;;
42600;SDS011;28229;48.856;9.088;2024-02-28T13:23:38;21.07;;;15.00;;
42600;SDS011;28229;48.856;9.088;2024-02-28T13:26:04;19.03;;;13.60;;
42600;SDS011;28229;48.856;9.088;2024-02-28T13:28:31;17.40;;;12.73;;
42600;SDS011;28229;48.856;9.088;2024-02-28T13:30:58;19.93;;;14.13;;
42600;SDS011;28229;48.856;9.088;2024-02-28T13:33:26;18.90;;;13.83;;
42600;SDS011;28229;48.856;9.088;2024-02-28T13:35:53;20.33;;;14.53;;
42600;SDS011;28229;48.856;9.088;2024-02-28T13:38:20;18.03;;;12.70;;
42600;SDS011;28229;48.856;9.088;2024-02-28T13:40:47;19.90;;;13.00;;
42600;SDS011;28229;48.856;9.088;2024-02-28T13:43:14;16.30;;;12.30;;
42600;SDS011;28229;48.856;9.088;2024-02-28T13:45:40;18.80;;;12.30;;
42600;SDS011;28229;48.856;9.088;2024-02-28T13:48:15;17.10;;;12.10;;
42600;SDS011;28229;48.856;9.088;2024-02-28T13:50:47;17.43;;;11.67;;
42600;SDS011;28229;48.856;9.088;2024-02-28T13:53:14;18.30;;;12.57;;
42600;SDS011;28229;48.856;9.088;2024-02-28T13:55:46;19.13;;;13.37;;
42600;SDS011;28229;48.856;9.088;2024-02-28T13:58:12;17.17;;;12.57;;
42600;SDS011;28229;48.856;9.088;2024-02-28T14:00:39;17.67;;;12.13;;
42600;SDS011;28229;48.856;9.088;2024-02-28T14:03:06;19.40;;;13.23;;
42600;SDS011;28229;48.856;9.088;2024-02-28T14:05:32;18.67;;;13.00;;
42600;SDS011;28229;48.856;9.088;2024-02-28T14:07:58;19.00;;;13.07;;
42600;SDS011;28229;48.856;9.088;2024-02-28T14:10:25;19.03;;;13.63;;
42600;SDS011;28229;48.856;9.088;2024-02-28T14:12:51;18.17;;;12.57;;
42600;SDS011;28229;48.856;9.088;2024-02-28T14:15:21;20.27;;;13.13;;
42600;SDS011;28229;48.856;9.088;2024-02-28T14:17:48;18.37;;;12.50;;